createdAt,value
2019-04-10T00:00:44.099Z,10.70
2019-04-10T00:03:25.506Z,10.70
2019-04-10T00:05:45.851Z,10.70
2019-04-10T00:08:15.649Z,10.70
2019-04-10T00:10:45.855Z,10.60
2019-04-10T00:13:15.521Z,10.60
2019-04-10T00:15:46.483Z,10.50
2019-04-10T00:18:16.653Z,10.50
2019-04-10T00:20:46.964Z,10.50
2019-04-10T00:23:17.360Z,10.50
2019-04-10T00:25:47.055Z,10.40
2019-04-10T00:28:17.043Z,10.20
2019-04-10T00:30:47.818Z,10.10
2019-04-10T00:33:18.844Z,10.00
2019-04-10T00:35:49.766Z,10.00
2019-04-10T00:38:20.092Z,9.90
2019-04-10T00:40:49.994Z,9.90
2019-04-10T00:43:19.569Z,9.80
2019-04-10T00:45:49.405Z,9.80
2019-04-10T00:48:19.651Z,9.70
2019-04-10T00:50:49.290Z,9.70
2019-04-10T00:53:19.210Z,9.70
2019-04-10T00:55:50.275Z,9.70
2019-04-10T00:58:20.417Z,9.80
2019-04-10T01:00:50.376Z,9.80
2019-04-10T01:03:38.300Z,9.70
2019-04-10T01:06:08.122Z,9.80
2019-04-10T01:08:37.860Z,9.90
2019-04-10T01:11:08.579Z,9.80
2019-04-10T01:13:41.171Z,9.80
2019-04-10T01:16:11.327Z,9.70
2019-04-10T01:18:41.595Z,9.70
2019-04-10T01:21:12.412Z,9.70
2019-04-10T01:23:42.081Z,9.60
2019-04-10T01:26:12.718Z,9.50
2019-04-10T01:28:42.384Z,9.60
2019-04-10T01:31:12.906Z,9.50
2019-04-10T01:33:43.019Z,9.50
2019-04-10T01:36:15.091Z,9.50
2019-04-10T01:38:44.776Z,9.50
2019-04-10T01:41:15.285Z,9.70
2019-04-10T01:43:45.058Z,9.70
2019-04-10T01:46:14.586Z,9.60
2019-04-10T01:48:44.310Z,9.60
2019-04-10T01:51:15.098Z,9.60
2019-04-10T01:53:44.834Z,9.60
2019-04-10T01:56:21.933Z,9.50
2019-04-10T01:58:47.692Z,9.50
2019-04-10T02:01:24.162Z,9.50
2019-04-10T02:03:54.346Z,9.50
2019-04-10T02:06:23.971Z,9.40
2019-04-10T02:08:54.208Z,9.30
2019-04-10T02:11:24.050Z,9.20
2019-04-10T02:13:53.997Z,9.10
2019-04-10T02:16:24.553Z,9.10
2019-04-10T02:18:55.120Z,8.90
2019-04-10T02:21:25.463Z,8.80
2019-04-10T02:23:55.223Z,8.70
2019-04-10T02:26:25.545Z,8.70
2019-04-10T02:28:55.589Z,8.70
2019-04-10T02:31:26.394Z,8.70
2019-04-10T02:33:58.051Z,8.70
2019-04-10T02:36:29.819Z,8.60
2019-04-10T02:39:12.116Z,8.60
2019-04-10T02:41:32.205Z,8.60
2019-04-10T02:44:02.907Z,8.50
2019-04-10T02:46:33.233Z,8.50
2019-04-10T02:49:04.056Z,8.40
2019-04-10T02:51:35.082Z,8.50
2019-04-10T02:54:05.714Z,8.40
2019-04-10T02:56:36.644Z,8.50
2019-04-10T02:59:07.317Z,8.40
2019-04-10T03:01:38.208Z,8.30
2019-04-10T03:04:09.775Z,8.20
2019-04-10T03:06:39.786Z,8.20
2019-04-10T03:09:27.737Z,8.10
2019-04-10T03:11:41.962Z,8.00
2019-04-10T03:14:14.768Z,7.90
2019-04-10T03:16:45.687Z,7.80
2019-04-10T03:19:15.454Z,7.80
2019-04-10T03:21:45.254Z,7.80
2019-04-10T03:24:14.964Z,7.80
2019-04-10T03:26:45.748Z,7.90
2019-04-10T03:29:15.752Z,7.90
2019-04-10T03:31:47.453Z,7.90
2019-04-10T03:34:33.139Z,8.00
2019-04-10T03:37:02.824Z,8.00
2019-04-10T03:39:35.871Z,8.00
2019-04-10T03:42:06.422Z,8.00
2019-04-10T03:44:36.362Z,8.00
2019-04-10T03:47:07.035Z,7.90
2019-04-10T03:49:36.815Z,7.80
2019-04-10T03:52:07.235Z,7.80
2019-04-10T03:54:37.905Z,7.80
2019-04-10T03:57:08.197Z,7.90
2019-04-10T03:59:40.018Z,8.00
2019-04-10T04:02:09.435Z,7.90
2019-04-10T04:04:41.822Z,8.00
2019-04-10T04:07:11.507Z,7.90
2019-04-10T04:09:41.855Z,7.90
2019-04-10T04:12:12.544Z,7.80
2019-04-10T04:14:42.367Z,7.80
2019-04-10T04:17:12.239Z,7.80
2019-04-10T04:19:42.114Z,7.70
2019-04-10T04:22:12.546Z,7.70
2019-04-10T04:24:42.421Z,7.70
2019-04-10T04:27:15.288Z,7.80
2019-04-10T04:29:45.402Z,7.80
2019-04-10T04:32:15.912Z,7.80
2019-04-10T04:34:45.628Z,7.70
2019-04-10T04:37:15.275Z,7.80
2019-04-10T04:39:45.316Z,7.80
2019-04-10T04:42:14.952Z,7.80
2019-04-10T04:44:45.386Z,7.80
2019-04-10T04:47:15.687Z,7.70
2019-04-10T04:49:46.661Z,7.60
2019-04-10T04:52:20.331Z,7.60
2019-04-10T04:54:50.089Z,7.60
2019-04-10T04:57:20.463Z,7.60
2019-04-10T04:59:50.511Z,7.50
2019-04-10T05:02:20.586Z,7.50
2019-04-10T05:04:50.126Z,7.60
2019-04-10T05:07:20.354Z,7.70
2019-04-10T05:09:50.464Z,7.80
2019-04-10T05:12:20.279Z,7.80
2019-04-10T05:14:50.261Z,7.80
2019-04-10T05:17:20.119Z,7.70
2019-04-10T05:19:50.340Z,7.50
2019-04-10T05:22:20.360Z,7.40
2019-04-10T05:24:50.050Z,7.20
2019-04-10T05:27:19.728Z,7.20
2019-04-10T05:29:50.496Z,7.10
2019-04-10T05:32:21.335Z,7.20
2019-04-10T05:34:52.375Z,7.30
2019-04-10T05:37:23.076Z,7.40
2019-04-10T05:39:53.935Z,7.40
2019-04-10T05:42:24.816Z,7.40
2019-04-10T05:44:54.516Z,7.30
2019-04-10T05:47:24.411Z,7.20
2019-04-10T05:49:53.985Z,7.20
2019-04-10T05:52:23.821Z,7.20
2019-04-10T05:54:53.389Z,7.20
2019-04-10T05:57:26.759Z,7.20
2019-04-10T05:59:58.462Z,7.20
2019-04-10T06:02:28.267Z,7.10
2019-04-10T06:04:58.158Z,7.10
2019-04-10T06:07:27.819Z,7.10
2019-04-10T06:10:04.361Z,7.10
2019-04-10T06:12:30.613Z,7.10
2019-04-10T06:15:00.332Z,7.10
2019-04-10T06:17:32.276Z,7.10
2019-04-10T06:20:02.821Z,7.10
2019-04-10T06:22:34.763Z,7.30
2019-04-10T06:25:06.545Z,7.40
2019-04-10T06:27:36.723Z,7.50
2019-04-10T06:30:07.877Z,7.50
2019-04-10T06:32:39.752Z,7.50
2019-04-10T06:35:12.036Z,7.60
2019-04-10T06:37:42.240Z,7.70
2019-04-10T06:40:18.662Z,7.70
2019-04-10T06:42:51.605Z,7.80
2019-04-10T06:45:17.756Z,7.90
2019-04-10T06:47:48.654Z,8.00
2019-04-10T06:50:18.977Z,8.00
2019-04-10T06:52:49.259Z,8.10
2019-04-10T06:55:19.174Z,8.20
2019-04-10T06:57:55.774Z,8.30
2019-04-10T07:00:21.406Z,8.30
2019-04-10T07:02:52.598Z,8.40
2019-04-10T07:05:36.605Z,8.50
2019-04-10T07:08:09.153Z,8.70
2019-04-10T07:10:39.562Z,9.00
2019-04-10T07:13:04.294Z,9.20
2019-04-10T07:15:33.530Z,9.30
2019-04-10T07:18:03.243Z,9.40
2019-04-10T07:20:33.675Z,9.50
2019-04-10T07:23:03.650Z,9.60
2019-04-10T07:25:33.189Z,9.60
2019-04-10T07:28:05.259Z,9.60
2019-04-10T07:30:34.177Z,9.80
2019-04-10T07:33:07.562Z,9.90
2019-04-10T07:35:38.368Z,9.90
2019-04-10T07:38:08.069Z,10.10
2019-04-10T07:40:38.734Z,10.40
2019-04-10T07:43:08.777Z,10.50
2019-04-10T07:45:38.562Z,10.50
2019-04-10T07:48:08.794Z,10.40
2019-04-10T07:50:39.085Z,10.40
2019-04-10T07:53:08.723Z,10.40
2019-04-10T07:55:39.741Z,10.30
2019-04-10T07:58:11.516Z,10.20
2019-04-10T08:00:41.483Z,10.30
2019-04-10T08:03:14.669Z,10.20
2019-04-10T08:05:45.968Z,10.20
2019-04-10T08:08:17.157Z,10.20
2019-04-10T08:10:48.721Z,10.10
2019-04-10T08:13:20.453Z,10.10
2019-04-10T08:15:50.315Z,10.20
2019-04-10T08:18:23.334Z,10.10
2019-04-10T08:20:53.179Z,10.10
2019-04-10T08:23:23.916Z,10.10
2019-04-10T08:25:53.979Z,10.10
2019-04-10T08:28:24.075Z,10.30
2019-04-10T08:30:54.671Z,10.40
2019-04-10T08:33:25.936Z,10.40
2019-04-10T08:35:56.915Z,10.50
2019-04-10T08:38:28.043Z,10.50
2019-04-10T08:41:00.642Z,10.50
2019-04-10T08:43:31.243Z,10.60
2019-04-10T08:46:03.392Z,10.70
2019-04-10T08:48:35.840Z,11.00
2019-04-10T08:51:06.575Z,11.10
2019-04-10T08:53:36.338Z,11.20
2019-04-10T08:56:06.548Z,11.40
2019-04-10T08:58:36.483Z,11.40
2019-04-10T09:01:07.189Z,11.50
2019-04-10T09:03:39.885Z,11.50
2019-04-10T09:06:11.630Z,11.70
2019-04-10T09:08:41.959Z,11.80
2019-04-10T09:11:11.812Z,11.90
2019-04-10T09:13:41.416Z,12.00
2019-04-10T09:16:12.138Z,12.20
2019-04-10T09:18:41.910Z,12.30
2019-04-10T09:21:11.554Z,12.60
2019-04-10T09:23:48.253Z,12.60
2019-04-10T09:26:15.908Z,12.60
2019-04-10T09:28:46.613Z,12.70
2019-04-10T09:31:19.774Z,12.70
2019-04-10T09:33:49.905Z,12.90
2019-04-10T09:36:19.915Z,13.20
2019-04-10T09:38:50.687Z,13.20
2019-04-10T09:41:21.607Z,13.20
2019-04-10T09:43:51.535Z,13.50
2019-04-10T09:46:21.372Z,13.60
2019-04-10T09:48:51.978Z,13.60
2019-04-10T09:51:21.809Z,13.80
2019-04-10T09:53:51.686Z,13.80
2019-04-10T09:56:21.932Z,13.80
2019-04-10T09:58:51.885Z,14.00
2019-04-10T10:01:22.050Z,14.20
2019-04-10T10:03:52.790Z,14.70
2019-04-10T10:06:29.581Z,15.30
2019-04-10T10:08:54.565Z,16.10
2019-04-10T10:11:24.364Z,17.10
2019-04-10T10:13:54.295Z,18.00
2019-04-10T10:16:25.372Z,18.30
2019-04-10T10:18:55.459Z,19.30
2019-04-10T10:21:26.865Z,19.60
2019-04-10T10:23:58.137Z,20.10
2019-04-10T10:26:30.085Z,20.90
2019-04-10T10:29:00.691Z,21.20
2019-04-10T10:31:30.666Z,21.10
2019-04-10T10:34:01.846Z,21.10
2019-04-10T10:36:39.331Z,20.60
2019-04-10T10:39:11.221Z,20.00
2019-04-10T10:41:40.600Z,19.10
2019-04-10T10:44:11.029Z,18.00
2019-04-10T10:46:41.839Z,17.60
2019-04-10T10:49:12.556Z,17.90
2019-04-10T10:51:42.659Z,18.00
2019-04-10T10:54:12.604Z,18.10
2019-04-10T10:56:42.621Z,17.80
2019-04-10T10:59:13.369Z,17.40
2019-04-10T11:01:44.199Z,17.40
2019-04-10T11:04:16.809Z,17.40
2019-04-10T11:06:54.053Z,17.30
2019-04-10T11:09:19.696Z,17.20
2019-04-10T11:11:50.364Z,16.90
2019-04-10T11:14:21.483Z,16.50
2019-04-10T11:16:51.625Z,16.50
2019-04-10T11:19:21.971Z,16.70
2019-04-10T11:21:51.629Z,17.10
2019-04-10T11:24:22.824Z,17.10
2019-04-10T11:26:54.034Z,17.30
2019-04-10T11:29:25.100Z,17.30
2019-04-10T11:31:55.637Z,17.10
2019-04-10T11:34:26.510Z,17.10
2019-04-10T11:37:16.614Z,17.00
2019-04-10T11:39:33.029Z,17.10
2019-04-10T11:42:06.548Z,17.20
2019-04-10T11:44:36.687Z,17.60
2019-04-10T11:47:10.483Z,17.80
2019-04-10T11:49:44.354Z,17.70
2019-04-10T11:52:14.489Z,17.70
2019-04-10T11:54:44.935Z,17.80
2019-04-10T11:57:16.641Z,17.90
2019-04-10T11:59:49.531Z,17.90
2019-04-10T12:02:21.815Z,18.00
2019-04-10T12:04:55.975Z,18.00
2019-04-10T12:07:52.692Z,17.90
2019-04-10T12:12:26.403Z,17.90
2019-04-10T12:14:56.228Z,18.20
2019-04-10T12:17:27.611Z,18.50
2019-04-10T12:19:57.607Z,19.00
2019-04-10T12:22:27.507Z,19.30
2019-04-10T12:24:58.449Z,19.70
2019-04-10T12:27:29.304Z,19.80
2019-04-10T12:29:59.377Z,20.30
2019-04-10T12:32:29.185Z,20.90
2019-04-10T12:35:00.306Z,21.60
2019-04-10T12:37:31.065Z,22.00
2019-04-10T12:40:01.425Z,22.70
2019-04-10T12:42:35.238Z,23.00
2019-04-10T12:45:08.289Z,23.20
2019-04-10T12:47:39.784Z,23.20
2019-04-10T12:50:12.054Z,22.40
2019-04-10T12:52:42.882Z,21.80
2019-04-10T12:55:12.889Z,21.00
2019-04-10T12:57:43.437Z,20.20
2019-04-10T13:00:18.357Z,20.50
2019-04-10T13:02:48.176Z,20.60
2019-04-10T13:05:18.874Z,20.80
2019-04-10T13:07:50.199Z,21.00
2019-04-10T13:10:20.459Z,21.60
2019-04-10T13:12:50.693Z,22.60
2019-04-10T13:15:21.364Z,22.60
2019-04-10T13:17:53.105Z,22.10
2019-04-10T13:20:24.027Z,21.80
2019-04-10T13:22:54.176Z,21.40
2019-04-10T13:25:26.299Z,21.30
2019-04-10T13:27:56.525Z,21.20
2019-04-10T13:30:27.046Z,21.20
2019-04-10T13:32:58.228Z,20.90
2019-04-10T13:35:28.394Z,20.90
2019-04-10T13:37:58.951Z,21.20
2019-04-10T13:40:29.902Z,21.40
2019-04-10T13:43:01.322Z,21.60
2019-04-10T13:45:31.284Z,21.60
2019-04-10T13:48:02.048Z,21.50
2019-04-10T13:50:32.739Z,21.30
2019-04-10T13:53:09.966Z,21.20
2019-04-10T13:55:42.419Z,21.10
2019-04-10T13:58:12.419Z,20.90
2019-04-10T14:00:43.077Z,20.60
2019-04-10T14:03:14.539Z,20.60
2019-04-10T14:05:49.432Z,20.60
2019-04-10T14:08:19.364Z,20.50
2019-04-10T14:10:50.607Z,20.40
2019-04-10T14:13:21.959Z,20.20
2019-04-10T14:15:53.239Z,20.30
2019-04-10T14:18:24.086Z,20.80
2019-04-10T14:20:55.282Z,21.30
2019-04-10T14:23:29.788Z,21.50
2019-04-10T14:26:11.937Z,21.20
2019-04-10T14:28:41.349Z,20.60
2019-04-10T14:31:21.873Z,20.60
2019-04-10T14:33:51.589Z,20.90
2019-04-10T14:36:22.430Z,20.90
2019-04-10T14:38:52.429Z,20.80
2019-04-10T14:41:24.683Z,21.00
2019-04-10T14:43:55.600Z,21.20
2019-04-10T14:46:26.290Z,21.40
2019-04-10T14:48:56.592Z,21.40
2019-04-10T14:51:30.362Z,21.20
2019-04-10T14:54:01.700Z,21.90
2019-04-10T14:56:32.451Z,23.20
2019-04-10T14:59:02.416Z,24.30
2019-04-10T15:01:35.895Z,24.50
2019-04-10T15:04:06.274Z,24.20
2019-04-10T15:06:36.141Z,23.80
2019-04-10T15:09:23.155Z,23.20
2019-04-10T15:11:48.930Z,22.80
2019-04-10T15:14:19.391Z,22.90
2019-04-10T15:16:59.527Z,22.80
2019-04-10T15:19:26.821Z,22.40
2019-04-10T15:21:56.888Z,21.90
2019-04-10T15:24:27.831Z,20.90
2019-04-10T15:26:58.760Z,20.50
2019-04-10T15:29:28.502Z,20.60
2019-04-10T15:31:59.994Z,21.00
2019-04-10T15:34:30.260Z,21.20
2019-04-10T15:37:02.543Z,22.30
2019-04-10T15:39:37.083Z,23.90
2019-04-10T15:42:06.159Z,25.90
2019-04-10T15:44:40.717Z,27.10
2019-04-10T15:47:18.290Z,27.10
2019-04-10T15:49:46.839Z,26.50
2019-04-10T15:52:17.582Z,25.90
2019-04-10T15:54:48.323Z,25.20
2019-04-10T15:57:18.478Z,24.00
2019-04-10T15:59:54.621Z,22.50
2019-04-10T16:02:25.782Z,21.60
2019-04-10T16:04:57.272Z,21.10
2019-04-10T16:07:28.848Z,21.30
2019-04-10T16:10:08.526Z,21.00
2019-04-10T16:12:45.748Z,20.70
2019-04-10T16:15:17.391Z,21.00
2019-04-10T16:17:55.158Z,21.10
2019-04-10T16:20:29.863Z,20.50
2019-04-10T16:23:18.467Z,19.60
2019-04-10T16:25:52.279Z,18.70
2019-04-10T16:28:23.850Z,17.80
2019-04-10T16:31:03.361Z,17.20
2019-04-10T16:33:35.778Z,16.60
2019-04-10T16:36:08.553Z,16.10
2019-04-10T16:38:39.180Z,15.90
2019-04-10T16:41:10.176Z,15.70
2019-04-10T16:43:40.433Z,15.60
2019-04-10T16:46:13.271Z,15.30
2019-04-10T16:48:46.275Z,15.10
2019-04-10T16:51:20.434Z,14.70
2019-04-10T16:53:51.701Z,14.60
2019-04-10T16:56:31.832Z,14.60
2019-04-10T16:59:02.738Z,14.50
2019-04-10T17:01:33.711Z,14.70
2019-04-10T17:04:04.839Z,14.70
2019-04-10T17:06:44.231Z,14.70
2019-04-10T17:09:20.724Z,14.60
2019-04-10T17:11:51.408Z,14.40
2019-04-10T17:14:39.783Z,14.20
2019-04-10T17:17:13.176Z,14.10
2019-04-10T17:19:48.756Z,14.10
2019-04-10T17:22:30.877Z,14.10
2019-04-10T17:24:53.684Z,14.00
2019-04-10T17:27:25.726Z,13.80
2019-04-10T17:29:56.945Z,13.70
2019-04-10T17:32:31.015Z,13.70
2019-04-10T17:35:03.155Z,13.70
2019-04-10T17:37:33.940Z,13.70
2019-04-10T17:40:06.201Z,13.60
2019-04-10T17:42:37.727Z,13.50
2019-04-10T17:45:10.111Z,13.30
2019-04-10T17:47:56.505Z,13.20
2019-04-10T17:50:32.305Z,13.10
2019-04-10T17:53:05.124Z,13.00
2019-04-10T17:55:35.743Z,12.90
2019-04-10T17:58:07.408Z,12.70
2019-04-10T18:00:43.182Z,12.60
2019-04-10T18:03:19.859Z,12.50
2019-04-10T18:05:50.936Z,12.40
2019-04-10T18:08:26.674Z,12.30
2019-04-10T18:10:56.948Z,12.10
2019-04-10T18:13:28.728Z,12.10
2019-04-10T18:16:02.463Z,11.90
2019-04-10T18:18:35.870Z,11.80
2019-04-10T18:21:06.765Z,11.70
2019-04-10T18:23:37.965Z,11.60
2019-04-10T18:26:11.494Z,11.50
2019-04-10T18:28:46.724Z,11.40
2019-04-10T18:31:29.809Z,11.40
2019-04-10T18:34:00.841Z,11.30
2019-04-10T18:36:31.960Z,11.20
2019-04-10T18:39:12.484Z,11.10
2019-04-10T18:41:42.273Z,11.00
2019-04-10T18:47:20.625Z,10.90
2019-04-10T18:49:51.759Z,10.80
2019-04-10T18:52:25.405Z,10.80
2019-04-10T18:54:57.043Z,10.70
2019-04-10T18:57:29.599Z,10.60
2019-04-10T19:00:21.810Z,10.50
2019-04-10T19:03:01.348Z,10.50
2019-04-10T19:05:38.413Z,10.40
2019-04-10T19:08:15.684Z,10.30
2019-04-10T19:10:47.950Z,10.30
2019-04-10T19:13:26.701Z,10.30
2019-04-10T19:15:59.686Z,10.20
2019-04-10T19:18:37.557Z,10.20
2019-04-10T19:21:08.292Z,10.10
2019-04-10T19:23:57.536Z,10.10
2019-04-10T19:26:33.525Z,10.00
2019-04-10T19:29:09.559Z,10.00
2019-04-10T19:31:48.854Z,9.90
2019-04-10T19:34:25.420Z,9.90
2019-04-10T19:37:06.129Z,9.80
2019-04-10T19:39:38.377Z,9.70
2019-04-10T19:42:09.603Z,9.60
2019-04-10T19:44:41.393Z,9.50
2019-04-10T19:47:12.789Z,9.50
2019-04-10T19:49:44.618Z,9.40
2019-04-10T19:52:16.014Z,9.30
2019-04-10T19:54:51.315Z,9.30
2019-04-10T19:57:23.456Z,9.20
2019-04-10T19:59:57.863Z,9.00
2019-04-10T20:02:35.424Z,9.00
2019-04-10T20:05:07.381Z,8.90
2019-04-10T20:07:43.068Z,8.90
2019-04-10T20:10:15.294Z,8.80
2019-04-10T20:12:45.771Z,8.80
2019-04-10T20:15:16.592Z,8.80
2019-04-10T20:17:48.289Z,8.60
2019-04-10T20:20:23.462Z,8.50
2019-04-10T20:22:55.526Z,8.40
2019-04-10T20:25:26.449Z,8.50
2019-04-10T20:27:58.498Z,8.40
2019-04-10T20:30:31.122Z,8.30
2019-04-10T20:33:02.758Z,8.20
2019-04-10T20:35:36.271Z,8.20
2019-04-10T20:38:07.672Z,8.20
2019-04-10T20:40:38.454Z,8.20
2019-04-10T20:43:09.089Z,8.10
2019-04-10T20:45:40.517Z,8.00
2019-04-10T20:48:12.061Z,8.00
2019-04-10T20:50:43.893Z,8.10
2019-04-10T20:53:15.790Z,8.10
2019-04-10T20:55:51.457Z,8.10
2019-04-10T20:58:22.702Z,8.10
2019-04-10T21:00:53.021Z,8.00
2019-04-10T21:03:25.278Z,8.00
2019-04-10T21:05:56.402Z,8.00
2019-04-10T21:08:27.512Z,8.10
2019-04-10T21:10:59.082Z,8.10
2019-04-10T21:13:34.013Z,8.10
2019-04-10T21:16:05.281Z,8.10
2019-04-10T21:18:51.876Z,8.10
2019-04-10T21:21:22.243Z,8.00
2019-04-10T21:23:56.484Z,7.90
2019-04-10T21:26:34.662Z,7.90
2019-04-10T21:29:06.745Z,7.90
2019-04-10T21:31:58.916Z,7.80
2019-04-10T21:34:35.371Z,7.70
2019-04-10T21:37:06.409Z,7.60
2019-04-10T21:39:38.064Z,7.60
2019-04-10T21:42:19.584Z,7.60
2019-04-10T21:44:44.999Z,7.60
2019-04-10T21:47:19.401Z,7.50
2019-04-10T21:49:53.299Z,7.40
2019-04-10T21:52:23.355Z,7.50
2019-04-10T21:54:58.639Z,7.30
2019-04-10T21:57:27.288Z,7.20
2019-04-10T21:59:59.507Z,7.20
2019-04-10T22:02:31.541Z,7.10
2019-04-10T22:05:03.830Z,7.00
2019-04-10T22:07:58.785Z,7.10
2019-04-10T22:10:34.173Z,7.10
2019-04-10T22:13:04.031Z,7.00
2019-04-10T22:15:43.319Z,7.10
2019-04-10T22:18:12.959Z,7.10
2019-04-10T22:20:43.682Z,7.20
2019-04-10T22:23:17.994Z,7.10
2019-04-10T22:25:50.150Z,6.90
2019-04-10T22:28:25.268Z,7.00
2019-04-10T22:30:55.735Z,7.00
2019-04-10T22:33:32.095Z,6.80
2019-04-10T22:36:02.557Z,6.90
2019-04-10T22:38:35.597Z,6.80
2019-04-10T22:41:19.535Z,6.60
2019-04-10T22:43:38.696Z,6.40
2019-04-10T22:46:08.823Z,6.50
2019-04-10T22:48:40.239Z,6.40
2019-04-10T22:51:11.183Z,6.30
2019-04-10T22:53:41.755Z,6.20
2019-04-10T22:56:15.667Z,6.10
2019-04-10T22:58:45.623Z,6.00
2019-04-10T23:01:15.517Z,5.90
2019-04-10T23:03:47.861Z,5.90
2019-04-10T23:06:21.501Z,5.80
2019-04-10T23:08:52.142Z,5.80
2019-04-10T23:11:38.398Z,5.70
2019-04-10T23:14:00.589Z,5.70
2019-04-10T23:16:36.640Z,5.60
2019-04-10T23:19:09.938Z,5.60
2019-04-10T23:21:40.879Z,5.50
2019-04-10T23:24:11.762Z,5.60
2019-04-10T23:26:47.410Z,5.60
2019-04-10T23:29:17.182Z,5.50
2019-04-10T23:31:47.938Z,5.40
2019-04-10T23:34:18.883Z,5.40
2019-04-10T23:36:51.484Z,5.50
2019-04-10T23:39:21.859Z,5.40
2019-04-10T23:41:57.263Z,5.40
2019-04-10T23:44:29.116Z,5.40
2019-04-10T23:47:04.900Z,5.40
2019-04-10T23:49:35.341Z,5.40
2019-04-10T23:52:05.473Z,5.50
2019-04-10T23:54:37.424Z,5.40
2019-04-10T23:57:11.769Z,5.40
2019-04-10T23:59:44.646Z,5.40
